Time;durP1;ratioP1;P1;durP2;ratioP2;P2;SDS_P1;SDS_P2;PMS_P1;PMS_P2;Temp;Humidity;BMP_temperature;BMP_pressure;BME280_temperature;BME280_humidity;BME280_pressure;Samples;Min_cycle;Max_cycle;Signal;HPM_P1;HPM_P2
2023/05/05 00:01:01;;;;;;;18.25;9.82;;;;;;;;;;5034820;28;20057;-59
2023/05/05 00:03:28;;;;;;;17.38;9.80;;;;;;;;;;5044253;28;20048;-58
2023/05/05 00:05:54;;;;;;;18.08;10.40;;;;;;;;;;5041817;28;20033;-58
2023/05/05 00:08:20;;;;;;;18.60;11.00;;;;;;;;;;5035766;28;20033;-59
2023/05/05 00:10:49;;;;;;;16.10;9.23;;;;;;;;;;5034087;28;20076;-59
2023/05/05 00:13:16;;;;;;;21.40;10.50;;;;;;;;;;5038922;28;20055;-58
2023/05/05 00:15:44;;;;;;;17.60;9.65;;;;;;;;;;5032693;28;20033;-58
2023/05/05 00:18:12;;;;;;;15.57;9.00;;;;;;;;;;5036009;28;20044;-58
2023/05/05 00:20:38;;;;;;;17.65;8.73;;;;;;;;;;5040192;28;20042;-58
2023/05/05 00:23:04;;;;;;;15.02;9.20;;;;;;;;;;5039865;28;20045;-58
2023/05/05 00:25:30;;;;;;;14.77;9.27;;;;;;;;;;5033271;28;20056;-58
2023/05/05 00:27:56;;;;;;;21.30;9.73;;;;;;;;;;5036938;28;20045;-58
2023/05/05 00:30:23;;;;;;;14.73;8.90;;;;;;;;;;5032808;28;20434;-58
2023/05/05 00:32:49;;;;;;;14.52;9.50;;;;;;;;;;5035194;28;20045;-58
2023/05/05 00:35:17;;;;;;;17.92;9.73;;;;;;;;;;5030265;28;20052;-58
2023/05/05 00:37:43;;;;;;;16.00;9.70;;;;;;;;;;5035643;28;20032;-58
2023/05/05 00:40:10;;;;;;;17.75;9.45;;;;;;;;;;5038573;28;20029;-58
2023/05/05 00:42:40;;;;;;;15.20;8.73;;;;;;;;;;5040240;28;20037;-58
2023/05/05 00:45:06;;;;;;;16.65;8.95;;;;;;;;;;5037475;28;20042;-58
2023/05/05 00:47:33;;;;;;;11.30;8.20;;;;;;;;;;5036471;28;20037;-58
2023/05/05 00:49:59;;;;;;;13.73;9.10;;;;;;;;;;5033989;28;20044;-58
2023/05/05 00:52:25;;;;;;;18.77;9.30;;;;;;;;;;5038110;28;20049;-58
2023/05/05 00:54:52;;;;;;;12.77;8.65;;;;;;;;;;5040698;28;20033;-58
2023/05/05 00:57:19;;;;;;;13.57;9.55;;;;;;;;;;5036416;28;20037;-58
2023/05/05 00:59:45;;;;;;;18.20;9.07;;;;;;;;;;5036609;28;20403;-58
2023/05/05 01:02:12;;;;;;;12.95;8.70;;;;;;;;;;5034482;28;20415;-58
2023/05/05 01:04:38;;;;;;;17.27;8.90;;;;;;;;;;5041950;28;20064;-58
2023/05/05 01:07:28;;;;;;;13.55;8.77;;;;;;;;;;5040233;28;20040;-58
2023/05/05 01:10:02;;;;;;;13.35;8.77;;;;;;;;;;5036754;28;20049;-58
2023/05/05 01:12:47;;;;;;;15.38;9.20;;;;;;;;;;5036388;28;20049;-58
2023/05/05 01:15:34;;;;;;;16.73;9.35;;;;;;;;;;5040788;28;20064;-58
2023/05/05 01:18:16;;;;;;;14.77;9.02;;;;;;;;;;5044375;28;20029;-58
2023/05/05 01:21:10;;;;;;;16.13;9.18;;;;;;;;;;5038690;28;20475;-58
2023/05/05 01:23:42;;;;;;;16.15;9.18;;;;;;;;;;5033838;28;20410;-59
2023/05/05 01:26:29;;;;;;;20.33;10.00;;;;;;;;;;5036353;28;20033;-58
2023/05/05 01:29:13;;;;;;;12.82;9.60;;;;;;;;;;5035069;28;20494;-58
2023/05/05 01:31:53;;;;;;;17.50;9.55;;;;;;;;;;5037242;28;20045;-59
2023/05/05 01:34:25;;;;;;;15.30;9.73;;;;;;;;;;5041858;28;20041;-59
2023/05/05 01:37:04;;;;;;;16.77;10.00;;;;;;;;;;5036263;28;20041;-59
2023/05/05 01:39:33;;;;;;;18.58;10.10;;;;;;;;;;5039362;28;20045;-59
2023/05/05 01:42:05;;;;;;;15.10;9.80;;;;;;;;;;5038722;28;20037;-59
2023/05/05 01:44:35;;;;;;;16.33;9.85;;;;;;;;;;5037150;28;20044;-59
2023/05/05 01:47:03;;;;;;;18.75;10.25;;;;;;;;;;5034792;28;20029;-59
2023/05/05 01:49:31;;;;;;;18.35;10.48;;;;;;;;;;5037899;28;20399;-59
2023/05/05 01:51:59;;;;;;;18.35;10.80;;;;;;;;;;5042385;28;20033;-59
2023/05/05 01:54:28;;;;;;;13.68;10.10;;;;;;;;;;5040039;28;20510;-59
2023/05/05 01:56:57;;;;;;;20.42;10.95;;;;;;;;;;5038177;28;20526;-59
2023/05/05 01:59:25;;;;;;;16.27;10.10;;;;;;;;;;5036271;28;20049;-59
2023/05/05 02:01:52;;;;;;;21.98;10.63;;;;;;;;;;5040687;28;20051;-59
2023/05/05 02:04:21;;;;;;;18.40;10.32;;;;;;;;;;5036642;28;20049;-59
2023/05/05 02:06:50;;;;;;;;;;;;;;;;;;5033589;28;20042;-58
2023/05/05 02:09:16;;;;;;;18.20;10.50;;;;;;;;;;5042752;28;19924;-57
2023/05/05 02:11:42;;;;;;;16.65;9.90;;;;;;;;;;5036862;28;20049;-59
2023/05/05 02:14:10;;;;;;;19.05;10.60;;;;;;;;;;5040123;28;20040;-58
2023/05/05 02:16:40;;;;;;;17.75;11.02;;;;;;;;;;5041091;28;20041;-58
2023/05/05 02:19:06;;;;;;;15.95;9.98;;;;;;;;;;5038374;28;20042;-58
2023/05/05 02:21:33;;;;;;;18.00;9.68;;;;;;;;;;5039090;28;20045;-57
2023/05/05 02:24:00;;;;;;;20.48;10.32;;;;;;;;;;5041997;28;20045;-58
2023/05/05 02:26:28;;;;;;;17.08;9.93;;;;;;;;;;5040318;28;20037;-57
2023/05/05 02:29:04;;;;;;;18.02;9.95;;;;;;;;;;5036114;28;20049;-57
2023/05/05 02:31:33;;;;;;;20.17;10.32;;;;;;;;;;5041493;28;20037;-58
2023/05/05 02:34:03;;;;;;;20.92;10.23;;;;;;;;;;5040213;28;20491;-58
2023/05/05 02:36:36;;;;;;;20.08;9.95;;;;;;;;;;5036595;28;20029;-58
2023/05/05 02:39:13;;;;;;;21.88;10.20;;;;;;;;;;5037354;28;20410;-58
2023/05/05 02:41:43;;;;;;;17.52;9.90;;;;;;;;;;5040190;28;20037;-58
2023/05/05 02:44:23;;;;;;;20.88;9.80;;;;;;;;;;5040739;28;20431;-58
2023/05/05 02:46:50;;;;;;;16.35;9.85;;;;;;;;;;5035802;28;20037;-60
2023/05/05 02:49:16;;;;;;;19.15;10.18;;;;;;;;;;5043306;28;20402;-58
2023/05/05 02:51:43;;;;;;;18.48;10.45;;;;;;;;;;5041599;28;20503;-58
2023/05/05 02:54:18;;;;;;;19.48;11.15;;;;;;;;;;5034157;28;20071;-58
2023/05/05 02:56:52;;;;;;;15.00;8.98;;;;;;;;;;5034682;28;20033;-58
2023/05/05 02:59:28;;;;;;;15.30;9.80;;;;;;;;;;5034860;28;20044;-58
2023/05/05 03:02:20;;;;;;;19.55;9.75;;;;;;;;;;5052450;28;20048;-58
2023/05/05 03:04:53;;;;;;;20.50;10.18;;;;;;;;;;5033957;28;20052;-58
2023/05/05 03:07:25;;;;;;;18.67;10.88;;;;;;;;;;5040510;28;20049;-58
2023/05/05 03:10:08;;;;;;;21.15;10.70;;;;;;;;;;5037426;28;20032;-58
2023/05/05 03:12:47;;;;;;;14.68;9.88;;;;;;;;;;5037192;28;20522;-58
2023/05/05 03:15:25;;;;;;;15.77;9.60;;;;;;;;;;5033683;28;20486;-58
2023/05/05 03:17:52;;;;;;;14.48;9.50;;;;;;;;;;5037890;28;20391;-58
2023/05/05 03:20:20;;;;;;;16.58;10.00;;;;;;;;;;5042214;28;20035;-59
2023/05/05 03:22:48;;;;;;;15.07;9.70;;;;;;;;;;5034475;28;20044;-58
2023/05/05 03:25:15;;;;;;;14.18;9.10;;;;;;;;;;5036341;28;20419;-58
2023/05/05 03:27:41;;;;;;;15.65;10.02;;;;;;;;;;5042126;28;20033;-59
2023/05/05 03:30:09;;;;;;;22.35;10.80;;;;;;;;;;5037296;28;21029;-58
2023/05/05 03:32:42;;;;;;;17.35;9.70;;;;;;;;;;5036922;28;20051;-58
2023/05/05 03:35:08;;;;;;;15.20;9.40;;;;;;;;;;5040515;28;20103;-59
2023/05/05 03:37:34;;;;;;;14.55;9.00;;;;;;;;;;5036300;28;20415;-59
2023/05/05 03:40:00;;;;;;;15.25;9.45;;;;;;;;;;5030256;28;20037;-58
2023/05/05 03:42:26;;;;;;;15.85;9.32;;;;;;;;;;5032761;28;20419;-58
2023/05/05 03:44:53;;;;;;;16.00;9.05;;;;;;;;;;5036892;28;20045;-57
2023/05/05 03:47:23;;;;;;;15.73;9.43;;;;;;;;;;5036503;28;20506;-58
2023/05/05 03:49:50;;;;;;;12.02;8.70;;;;;;;;;;5031989;28;22033;-60
2023/05/05 03:52:16;;;;;;;17.08;9.32;;;;;;;;;;5040488;28;20045;-58
2023/05/05 03:54:44;;;;;;;17.55;9.60;;;;;;;;;;5034955;28;20049;-58
2023/05/05 03:57:11;;;;;;;21.90;11.80;;;;;;;;;;5040260;28;20029;-58
2023/05/05 03:59:37;;;;;;;23.90;10.35;;;;;;;;;;5032480;28;20064;-58
2023/05/05 04:02:03;;;;;;;14.48;9.00;;;;;;;;;;5040419;28;20515;-58
2023/05/05 04:04:29;;;;;;;18.25;8.30;;;;;;;;;;5036879;28;20042;-57
2023/05/05 04:06:56;;;;;;;12.57;7.97;;;;;;;;;;5038693;28;20041;-57
2023/05/05 04:09:22;;;;;;;10.70;7.80;;;;;;;;;;5036762;28;20040;-58
2023/05/05 04:11:48;;;;;;;14.52;8.02;;;;;;;;;;5043212;28;20032;-60
2023/05/05 04:14:15;;;;;;;12.70;8.15;;;;;;;;;;5041269;28;20553;-59
2023/05/05 04:16:41;;;;;;;14.95;8.43;;;;;;;;;;5041762;28;20040;-59
2023/05/05 04:19:07;;;;;;;15.75;8.40;;;;;;;;;;5034911;28;20431;-59
2023/05/05 04:21:34;;;;;;;12.23;7.32;;;;;;;;;;5042370;28;20056;-60
2023/05/05 04:24:01;;;;;;;14.23;7.55;;;;;;;;;;5041723;28;20071;-60
2023/05/05 04:26:28;;;;;;;11.15;7.05;;;;;;;;;;5023687;28;20045;-60
2023/05/05 04:28:54;;;;;;;12.48;7.88;;;;;;;;;;5040267;28;20052;-59
2023/05/05 04:31:21;;;;;;;12.10;7.22;;;;;;;;;;5041533;28;20033;-60
2023/05/05 04:33:47;;;;;;;9.23;6.65;;;;;;;;;;5034377;28;20033;-60
2023/05/05 04:36:13;;;;;;;11.32;6.93;;;;;;;;;;5034252;28;20029;-59
2023/05/05 04:38:40;;;;;;;10.82;6.35;;;;;;;;;;5034321;28;20045;-60
2023/05/05 04:41:06;;;;;;;9.10;6.85;;;;;;;;;;5040333;28;20045;-60
2023/05/05 04:43:34;;;;;;;8.80;6.03;;;;;;;;;;5036804;28;20513;-60
2023/05/05 04:46:00;;;;;;;9.13;6.38;;;;;;;;;;5037721;28;20423;-58
2023/05/05 04:48:30;;;;;;;;;;;;;;;;;;5036037;28;20049;-59
2023/05/05 04:50:56;;;;;;;8.75;6.28;;;;;;;;;;5030537;28;19940;-60
2023/05/05 04:53:22;;;;;;;9.10;5.63;;;;;;;;;;5035344;28;20036;-60
2023/05/05 04:55:48;;;;;;;9.10;6.22;;;;;;;;;;5033093;28;20407;-59
2023/05/05 04:58:15;;;;;;;33.60;6.38;;;;;;;;;;5038139;28;20057;-59
2023/05/05 05:00:41;;;;;;;9.60;5.63;;;;;;;;;;5033604;28;20048;-58
2023/05/05 05:03:07;;;;;;;7.53;5.53;;;;;;;;;;5041995;28;20060;-59
2023/05/05 05:05:33;;;;;;;8.82;6.07;;;;;;;;;;5035268;28;20037;-59
2023/05/05 05:07:59;;;;;;;7.63;6.00;;;;;;;;;;5037626;28;20041;-59
2023/05/05 05:10:25;;;;;;;7.80;5.47;;;;;;;;;;5040159;28;20063;-59
2023/05/05 05:12:51;;;;;;;6.53;5.88;;;;;;;;;;5045971;28;20053;-58
2023/05/05 05:15:18;;;;;;;7.80;5.25;;;;;;;;;;5041602;28;20067;-59
2023/05/05 05:17:44;;;;;;;13.20;4.97;;;;;;;;;;5040306;28;20041;-58
2023/05/05 05:20:11;;;;;;;6.78;5.30;;;;;;;;;;5039251;28;20034;-60
2023/05/05 05:22:37;;;;;;;6.97;5.53;;;;;;;;;;5036205;28;20029;-59
2023/05/05 05:25:05;;;;;;;7.53;5.35;;;;;;;;;;5041677;28;20036;-59
2023/05/05 05:27:32;;;;;;;7.65;5.03;;;;;;;;;;5045381;28;20404;-59
2023/05/05 05:29:58;;;;;;;6.22;5.05;;;;;;;;;;5034213;28;20038;-59
2023/05/05 05:32:25;;;;;;;5.38;4.20;;;;;;;;;;5037181;28;20051;-60
2023/05/05 05:34:52;;;;;;;6.32;4.13;;;;;;;;;;5038593;28;20055;-60
2023/05/05 05:37:18;;;;;;;7.30;3.70;;;;;;;;;;5038828;28;20152;-60
2023/05/05 05:39:51;;;;;;;9.68;3.97;;;;;;;;;;5039046;28;20411;-59
2023/05/05 05:42:18;;;;;;;6.85;4.10;;;;;;;;;;5040851;28;20037;-60
2023/05/05 05:44:44;;;;;;;4.63;3.75;;;;;;;;;;5038566;28;20052;-58
2023/05/05 05:47:11;;;;;;;5.63;3.90;;;;;;;;;;5042279;28;20040;-59
2023/05/05 05:49:37;;;;;;;7.43;3.80;;;;;;;;;;5040820;28;20052;-59
2023/05/05 05:52:04;;;;;;;5.68;3.58;;;;;;;;;;5042324;28;20041;-59
2023/05/05 05:54:33;;;;;;;4.80;3.15;;;;;;;;;;5028924;28;20048;-60
2023/05/05 05:56:59;;;;;;;4.78;3.55;;;;;;;;;;5047699;28;20036;-59
2023/05/05 05:59:25;;;;;;;4.30;3.60;;;;;;;;;;5038954;28;20025;-60
2023/05/05 06:01:52;;;;;;;3.95;3.42;;;;;;;;;;5040658;28;20041;-59
2023/05/05 06:04:18;;;;;;;5.78;3.40;;;;;;;;;;5046416;28;20067;-59
2023/05/05 06:06:44;;;;;;;7.70;3.70;;;;;;;;;;5050977;28;20056;-59
2023/05/05 06:09:11;;;;;;;4.00;3.53;;;;;;;;;;5042017;28;20514;-59
2023/05/05 06:11:37;;;;;;;5.32;4.00;;;;;;;;;;5045116;28;20040;-59
2023/05/05 06:14:03;;;;;;;7.45;3.60;;;;;;;;;;5042033;28;20502;-60
2023/05/05 06:16:29;;;;;;;5.38;3.90;;;;;;;;;;5043020;28;20048;-58
2023/05/05 06:18:58;;;;;;;5.18;4.00;;;;;;;;;;5044492;28;20044;-58
2023/05/05 06:21:24;;;;;;;6.07;3.50;;;;;;;;;;5037893;28;20219;-59
2023/05/05 06:23:50;;;;;;;5.45;3.42;;;;;;;;;;5029311;28;20049;-59
2023/05/05 06:26:17;;;;;;;5.35;3.70;;;;;;;;;;5048848;28;20665;-59
2023/05/05 06:28:43;;;;;;;4.18;3.45;;;;;;;;;;5037077;28;20040;-59
2023/05/05 06:31:11;;;;;;;8.02;4.15;;;;;;;;;;5040729;28;20048;-59
2023/05/05 06:33:37;;;;;;;4.78;3.90;;;;;;;;;;5047862;28;20394;-59
2023/05/05 06:36:04;;;;;;;9.18;3.38;;;;;;;;;;5042391;28;20068;-59
2023/05/05 06:38:30;;;;;;;5.32;3.60;;;;;;;;;;5040735;28;20423;-59
2023/05/05 06:40:57;;;;;;;5.40;4.43;;;;;;;;;;5038314;28;20044;-59
2023/05/05 06:43:23;;;;;;;4.43;3.80;;;;;;;;;;5041242;28;20029;-59
2023/05/05 06:45:56;;;;;;;4.18;3.47;;;;;;;;;;5038719;28;20033;-59
2023/05/05 06:48:22;;;;;;;6.47;3.80;;;;;;;;;;5047192;28;20029;-59
2023/05/05 06:50:48;;;;;;;4.93;3.53;;;;;;;;;;5046136;28;20049;-59
2023/05/05 06:53:14;;;;;;;6.75;4.10;;;;;;;;;;5041458;28;20037;-59
2023/05/05 06:55:43;;;;;;;7.70;3.90;;;;;;;;;;5038486;28;20044;-59
2023/05/05 06:58:10;;;;;;;5.32;3.40;;;;;;;;;;5035843;28;20049;-59
2023/05/05 07:00:40;;;;;;;6.90;3.97;;;;;;;;;;5038830;28;20037;-61
2023/05/05 07:03:06;;;;;;;;;;;;;;;;;;5041371;28;20055;-59
2023/05/05 07:05:32;;;;;;;6.72;4.18;;;;;;;;;;5036527;28;19913;-59
2023/05/05 07:07:59;;;;;;;9.60;4.07;;;;;;;;;;5039397;28;20029;-59
2023/05/05 07:10:26;;;;;;;5.90;3.72;;;;;;;;;;5040322;28;20041;-59
2023/05/05 07:12:53;;;;;;;3.95;3.28;;;;;;;;;;5042038;28;20411;-59
2023/05/05 07:15:21;;;;;;;5.72;3.58;;;;;;;;;;5044126;28;20399;-59
2023/05/05 07:17:47;;;;;;;5.20;3.83;;;;;;;;;;5042377;28;20053;-59
2023/05/05 07:20:15;;;;;;;6.10;3.78;;;;;;;;;;5043312;28;20403;-59
2023/05/05 07:22:41;;;;;;;4.78;3.60;;;;;;;;;;5045997;28;20044;-59
2023/05/05 07:25:08;;;;;;;4.97;4.28;;;;;;;;;;5042549;28;20033;-59
2023/05/05 07:27:36;;;;;;;4.90;3.90;;;;;;;;;;5036601;28;20040;-59
2023/05/05 07:30:03;;;;;;;3.88;3.55;;;;;;;;;;5040265;28;20040;-59
2023/05/05 07:32:29;;;;;;;4.63;3.55;;;;;;;;;;5043850;28;20539;-59
2023/05/05 07:34:55;;;;;;;5.15;3.47;;;;;;;;;;5038192;28;20033;-59
2023/05/05 07:37:22;;;;;;;4.93;3.50;;;;;;;;;;5045214;28;20044;-59
2023/05/05 07:39:48;;;;;;;8.05;3.70;;;;;;;;;;5036809;28;20045;-59
2023/05/05 07:42:14;;;;;;;3.58;3.05;;;;;;;;;;5038683;28;20509;-59
2023/05/05 07:44:40;;;;;;;4.32;3.25;;;;;;;;;;5036887;28;20049;-59
2023/05/05 07:47:07;;;;;;;5.60;3.42;;;;;;;;;;5042948;28;20048;-60
2023/05/05 07:49:33;;;;;;;6.35;3.40;;;;;;;;;;5043971;28;20498;-59
2023/05/05 07:51:59;;;;;;;4.93;3.05;;;;;;;;;;5035672;28;20029;-59
2023/05/05 07:54:26;;;;;;;7.35;3.10;;;;;;;;;;5046625;28;20756;-60
2023/05/05 07:56:52;;;;;;;5.38;3.15;;;;;;;;;;5035284;28;20113;-60
2023/05/05 07:59:18;;;;;;;5.72;3.50;;;;;;;;;;5041460;28;20426;-59
2023/05/05 08:01:44;;;;;;;4.82;3.35;;;;;;;;;;5037009;28;20494;-59
2023/05/05 08:04:10;;;;;;;4.97;3.75;;;;;;;;;;5033429;28;20045;-59
2023/05/05 08:06:36;;;;;;;6.30;3.53;;;;;;;;;;5038679;28;20503;-60
2023/05/05 08:09:03;;;;;;;8.95;3.70;;;;;;;;;;5042845;28;20056;-59
2023/05/05 08:11:29;;;;;;;6.63;3.55;;;;;;;;;;5018573;28;20514;-60
2023/05/05 08:13:56;;;;;;;7.47;3.35;;;;;;;;;;5035404;28;20415;-59
2023/05/05 08:16:22;;;;;;;3.90;3.30;;;;;;;;;;5039666;28;20033;-58
2023/05/05 08:18:48;;;;;;;5.50;3.50;;;;;;;;;;5039746;28;20052;-58
2023/05/05 08:21:14;;;;;;;5.07;3.17;;;;;;;;;;5038955;28;20052;-59
2023/05/05 08:23:40;;;;;;;3.95;3.22;;;;;;;;;;5038855;28;20331;-59
2023/05/05 08:26:07;;;;;;;7.75;3.22;;;;;;;;;;5038758;28;20048;-59
2023/05/05 08:28:37;;;;;;;5.97;3.70;;;;;;;;;;5033855;28;20040;-59
2023/05/05 08:31:04;;;;;;;5.45;3.28;;;;;;;;;;5036992;28;20038;-61
2023/05/05 08:33:30;;;;;;;5.60;3.17;;;;;;;;;;5037655;28;20037;-60
2023/05/05 08:35:56;;;;;;;4.35;3.30;;;;;;;;;;5038041;28;20040;-59
2023/05/05 08:38:23;;;;;;;3.85;3.45;;;;;;;;;;5039754;28;20052;-60
2023/05/05 08:40:50;;;;;;;5.55;3.80;;;;;;;;;;5044325;28;20044;-60
2023/05/05 08:43:21;;;;;;;6.93;4.15;;;;;;;;;;5043807;28;20052;-61
2023/05/05 08:45:48;;;;;;;7.85;4.20;;;;;;;;;;5040027;28;20037;-61
2023/05/05 08:48:18;;;;;;;6.72;4.30;;;;;;;;;;5040194;28;20037;-61
2023/05/05 08:50:48;;;;;;;9.85;4.22;;;;;;;;;;5044276;28;20046;-61
2023/05/05 08:53:16;;;;;;;8.85;4.35;;;;;;;;;;5045916;28;20029;-61
2023/05/05 08:55:50;;;;;;;6.50;4.25;;;;;;;;;;5036409;28;20044;-61
2023/05/05 08:58:21;;;;;;;9.05;4.20;;;;;;;;;;5040209;28;20049;-61
2023/05/05 09:00:48;;;;;;;12.50;5.32;;;;;;;;;;5036104;28;20044;-61
2023/05/05 09:03:14;;;;;;;6.78;3.83;;;;;;;;;;5039316;28;20049;-61
2023/05/05 09:05:42;;;;;;;6.90;5.05;;;;;;;;;;5040212;28;20032;-61
2023/05/05 09:08:09;;;;;;;8.95;4.60;;;;;;;;;;5041069;28;20426;-61
2023/05/05 09:10:40;;;;;;;5.43;4.38;;;;;;;;;;5041446;28;20037;-62
2023/05/05 09:13:06;;;;;;;7.07;4.05;;;;;;;;;;5040306;28;20042;-61
2023/05/05 09:15:32;;;;;;;7.80;5.13;;;;;;;;;;5040698;28;20499;-62
2023/05/05 09:18:00;;;;;;;8.13;5.38;;;;;;;;;;5039347;28;20052;-61
2023/05/05 09:20:35;;;;;;;5.40;4.50;;;;;;;;;;5042796;28;20037;-61
2023/05/05 09:23:07;;;;;;;10.90;4.90;;;;;;;;;;5034380;28;20053;-60
2023/05/05 09:25:33;;;;;;;7.10;3.85;;;;;;;;;;5042450;28;20048;-59
2023/05/05 09:28:10;;;;;;;6.75;4.25;;;;;;;;;;5039209;28;20033;-60
2023/05/05 09:30:37;;;;;;;5.15;4.18;;;;;;;;;;5036743;28;20037;-60
2023/05/05 09:33:03;;;;;;;5.38;4.20;;;;;;;;;;5039104;28;20503;-59
2023/05/05 09:35:50;;;;;;;4.88;3.67;;;;;;;;;;5040486;28;20415;-59
2023/05/05 09:38:18;;;;;;;7.53;4.03;;;;;;;;;;5029721;28;20033;-60
2023/05/05 09:40:49;;;;;;;6.68;4.10;;;;;;;;;;5042384;28;20037;-59
2023/05/05 09:43:16;;;;;;;4.97;3.45;;;;;;;;;;5040650;28;20045;-59
2023/05/05 09:45:42;;;;;;;5.03;3.90;;;;;;;;;;5043120;28;20044;-59
2023/05/05 09:48:29;;;;;;;6.03;3.70;;;;;;;;;;5036317;28;20029;-60
2023/05/05 09:50:56;;;;;;;5.72;3.08;;;;;;;;;;5037263;28;20049;-60
2023/05/05 09:53:24;;;;;;;3.67;2.88;;;;;;;;;;5046703;28;20033;-60
2023/05/05 09:55:57;;;;;;;5.93;3.00;;;;;;;;;;5042543;28;20045;-60
2023/05/05 09:58:28;;;;;;;4.00;3.10;;;;;;;;;;5039085;28;20033;-61
2023/05/05 10:00:56;;;;;;;4.40;3.20;;;;;;;;;;5034937;28;20030;-60
2023/05/05 10:03:23;;;;;;;3.85;3.15;;;;;;;;;;5035322;28;20081;-60
2023/05/05 10:05:57;;;;;;;4.80;3.30;;;;;;;;;;5048052;28;20033;-59
2023/05/05 10:08:32;;;;;;;4.53;2.92;;;;;;;;;;5043757;28;20239;-60
2023/05/05 10:11:02;;;;;;;4.90;2.50;;;;;;;;;;5043121;28;20048;-60
2023/05/05 10:13:29;;;;;;;4.93;2.55;;;;;;;;;;5037256;28;20045;-60
2023/05/05 10:15:56;;;;;;;5.82;2.60;;;;;;;;;;5040278;28;20042;-60
2023/05/05 10:18:27;;;;;;;4.32;2.38;;;;;;;;;;5040114;28;20044;-61
2023/05/05 10:20:57;;;;;;;3.63;3.22;;;;;;;;;;5037206;28;20411;-60
2023/05/05 10:23:29;;;;;;;3.88;2.47;;;;;;;;;;5042706;28;20048;-59
2023/05/05 10:26:03;;;;;;;2.72;2.10;;;;;;;;;;5048692;28;20029;-60
2023/05/05 10:28:40;;;;;;;4.82;2.50;;;;;;;;;;5036278;28;20056;-61
2023/05/05 10:31:32;;;;;;;1.88;1.63;;;;;;;;;;5034475;28;20045;-60
2023/05/05 10:34:04;;;;;;;1.88;1.65;;;;;;;;;;5038221;28;20037;-61
2023/05/05 10:36:31;;;;;;;2.35;1.98;;;;;;;;;;5038261;28;20036;-60
2023/05/05 10:38:58;;;;;;;2.33;1.75;;;;;;;;;;5044754;28;20049;-61
2023/05/05 10:41:28;;;;;;;2.20;1.80;;;;;;;;;;5041428;28;20231;-60
2023/05/05 10:43:58;;;;;;;3.05;1.50;;;;;;;;;;5041704;28;20033;-60
2023/05/05 10:46:26;;;;;;;3.05;1.70;;;;;;;;;;5040351;28;20407;-61
2023/05/05 10:49:00;;;;;;;2.72;1.60;;;;;;;;;;5042550;28;20041;-61
2023/05/05 10:52:00;;;;;;;3.20;1.65;;;;;;;;;;5035245;28;20040;-60
2023/05/05 10:55:01;;;;;;;2.03;1.58;;;;;;;;;;5040652;28;20048;-60
2023/05/05 10:57:28;;;;;;;2.35;1.60;;;;;;;;;;5035786;28;20048;-61
2023/05/05 10:59:54;;;;;;;2.65;1.45;;;;;;;;;;5040253;28;20048;-60
2023/05/05 11:02:28;;;;;;;2.90;1.70;;;;;;;;;;5032268;28;20594;-60
2023/05/05 11:05:09;;;;;;;2.28;1.80;;;;;;;;;;5039633;28;20036;-61
2023/05/05 11:07:36;;;;;;;2.25;1.48;;;;;;;;;;5032118;28;20415;-61
2023/05/05 11:10:04;;;;;;;1.58;1.27;;;;;;;;;;5036312;28;20056;-61
2023/05/05 11:12:44;;;;;;;1.55;1.45;;;;;;;;;;5040422;28;20053;-61
2023/05/05 11:15:22;;;;;;;1.63;1.40;;;;;;;;;;5039286;28;20049;-61
2023/05/05 11:17:48;;;;;;;1.87;1.77;;;;;;;;;;5037710;28;20053;-61
2023/05/05 11:20:15;;;;;;;2.10;1.63;;;;;;;;;;5042474;28;20041;-61
2023/05/05 11:23:04;;;;;;;1.67;1.40;;;;;;;;;;5041358;28;20399;-61
2023/05/05 11:25:33;;;;;;;4.68;1.50;;;;;;;;;;5036571;28;20124;-61
2023/05/05 11:28:10;;;;;;;3.55;1.70;;;;;;;;;;5036565;28;20041;-61
2023/05/05 11:30:54;;;;;;;3.50;1.83;;;;;;;;;;5033091;28;20033;-61
2023/05/05 11:33:29;;;;;;;2.70;1.30;;;;;;;;;;5037201;28;20033;-61
2023/05/05 11:36:01;;;;;;;2.50;1.63;;;;;;;;;;5035772;28;20049;-61
2023/05/05 11:38:49;;;;;;;3.65;2.10;;;;;;;;;;5039338;28;20029;-61
2023/05/05 11:42:03;;;;;;;4.93;1.90;;;;;;;;;;5039507;28;20056;-61
2023/05/05 11:44:32;;;;;;;1.65;1.40;;;;;;;;;;5027127;28;20041;-60
2023/05/05 11:46:58;;;;;;;2.40;1.70;;;;;;;;;;5035917;28;20048;-60
2023/05/05 11:49:32;;;;;;;3.03;1.50;;;;;;;;;;5035818;28;20053;-60
2023/05/05 11:51:59;;;;;;;4.47;1.70;;;;;;;;;;5034388;28;20037;-59
2023/05/05 11:54:26;;;;;;;2.20;1.90;;;;;;;;;;5035090;28;20057;-60
2023/05/05 11:56:54;;;;;;;3.15;1.77;;;;;;;;;;5030521;28;20411;-61
2023/05/05 11:59:20;;;;;;;2.30;1.60;;;;;;;;;;5026747;28;20032;-61
2023/05/05 12:01:47;;;;;;;2.53;1.90;;;;;;;;;;5042552;28;20045;-61
2023/05/05 12:04:14;;;;;;;2.05;1.50;;;;;;;;;;5039968;28;20037;-61
2023/05/05 12:06:41;;;;;;;3.92;1.70;;;;;;;;;;5033967;28;20045;-61
2023/05/05 12:09:18;;;;;;;2.33;1.67;;;;;;;;;;5041663;28;20034;-61
2023/05/05 12:11:52;;;;;;;2.38;1.83;;;;;;;;;;5045122;28;20044;-61
2023/05/05 12:14:19;;;;;;;2.00;1.80;;;;;;;;;;5041344;28;20041;-60
2023/05/05 12:16:57;;;;;;;3.85;2.00;;;;;;;;;;5036747;28;20059;-61
2023/05/05 12:19:28;;;;;;;5.80;3.80;;;;;;;;;;5034204;28;20045;-60
2023/05/05 12:21:55;;;;;;;6.38;3.00;;;;;;;;;;5036256;28;20041;-60
2023/05/05 12:24:22;;;;;;;6.60;3.10;;;;;;;;;;5037890;28;20036;-61
2023/05/05 12:26:48;;;;;;;4.47;3.17;;;;;;;;;;5037950;28;20037;-60
2023/05/05 12:29:24;;;;;;;3.72;2.33;;;;;;;;;;5035265;28;20037;-60
2023/05/05 12:31:50;;;;;;;4.60;2.60;;;;;;;;;;5037114;28;20029;-61
2023/05/05 12:34:16;;;;;;;2.10;1.75;;;;;;;;;;5040130;28;20037;-61
2023/05/05 12:36:43;;;;;;;4.90;2.47;;;;;;;;;;5036349;28;20667;-61
2023/05/05 12:39:09;;;;;;;3.35;2.50;;;;;;;;;;5032396;28;20053;-60
2023/05/05 12:41:35;;;;;;;3.80;2.15;;;;;;;;;;5036132;28;20041;-60
2023/05/05 12:44:02;;;;;;;7.97;3.20;;;;;;;;;;5033849;28;20037;-61
2023/05/05 12:46:29;;;;;;;4.57;2.25;;;;;;;;;;5041067;28;20513;-61
2023/05/05 12:49:03;;;;;;;3.08;2.38;;;;;;;;;;5038336;28;20024;-61
2023/05/05 12:51:31;;;;;;;2.42;1.70;;;;;;;;;;5033797;28;20066;-61
2023/05/05 12:54:08;;;;;;;2.40;1.80;;;;;;;;;;5040299;28;20049;-61
2023/05/05 12:56:42;;;;;;;2.40;1.70;;;;;;;;;;5030220;28;20041;-61
2023/05/05 12:59:11;;;;;;;2.60;1.60;;;;;;;;;;5034779;28;20030;-61
2023/05/05 13:01:58;;;;;;;4.15;1.77;;;;;;;;;;5037214;28;20033;-61
2023/05/05 13:04:26;;;;;;;3.72;1.63;;;;;;;;;;5037055;28;20052;-60
2023/05/05 13:07:12;;;;;;;3.05;1.88;;;;;;;;;;5036542;28;20052;-61
2023/05/05 13:09:38;;;;;;;3.70;1.90;;;;;;;;;;5031214;28;20397;-60
2023/05/05 13:12:07;;;;;;;4.63;1.90;;;;;;;;;;5038752;28;20049;-60
2023/05/05 13:14:33;;;;;;;5.15;2.40;;;;;;;;;;5041444;28;20040;-61
2023/05/05 13:17:00;;;;;;;5.07;2.50;;;;;;;;;;5043093;28;20035;-60
2023/05/05 13:19:26;;;;;;;5.97;2.00;;;;;;;;;;5035094;28;20033;-59
2023/05/05 13:21:57;;;;;;;2.58;1.70;;;;;;;;;;5032014;28;20026;-60
2023/05/05 13:24:24;;;;;;;3.15;2.00;;;;;;;;;;5033507;28;20394;-61
2023/05/05 13:26:51;;;;;;;2.67;2.00;;;;;;;;;;5042916;28;20041;-61
2023/05/05 13:29:17;;;;;;;2.83;1.83;;;;;;;;;;5044944;28;20052;-61
2023/05/05 13:31:44;;;;;;;2.63;2.15;;;;;;;;;;5037831;28;20045;-61
2023/05/05 13:34:11;;;;;;;2.38;1.70;;;;;;;;;;5041205;28;20506;-61
2023/05/05 13:36:37;;;;;;;2.95;1.92;;;;;;;;;;5042003;28;20057;-61
2023/05/05 13:39:03;;;;;;;4.68;2.03;;;;;;;;;;5043438;28;20033;-61
2023/05/05 13:41:29;;;;;;;2.03;1.70;;;;;;;;;;5040688;28;20029;-61
2023/05/05 13:43:55;;;;;;;3.30;2.33;;;;;;;;;;5046248;28;20037;-61
2023/05/05 13:46:22;;;;;;;2.25;2.00;;;;;;;;;;5042315;28;20044;-61
2023/05/05 13:48:48;;;;;;;5.15;2.20;;;;;;;;;;5036946;28;20048;-60
2023/05/05 13:51:15;;;;;;;3.30;1.95;;;;;;;;;;5033469;28;20502;-61
2023/05/05 13:53:42;;;;;;;2.88;1.80;;;;;;;;;;5037153;28;20050;-60
2023/05/05 13:56:09;;;;;;;2.85;2.13;;;;;;;;;;5028529;28;20048;-61
2023/05/05 13:58:36;;;;;;;2.25;2.00;;;;;;;;;;5038569;28;20036;-61
2023/05/05 14:01:03;;;;;;;2.78;1.85;;;;;;;;;;5037524;28;20052;-60
2023/05/05 14:03:29;;;;;;;3.03;1.85;;;;;;;;;;5041548;28;20037;-60
2023/05/05 14:05:56;;;;;;;3.53;1.73;;;;;;;;;;5043459;28;20041;-61
2023/05/05 14:08:22;;;;;;;2.80;1.50;;;;;;;;;;5035953;28;20044;-60
2023/05/05 14:10:48;;;;;;;4.20;2.55;;;;;;;;;;5042517;28;20414;-61
2023/05/05 14:13:14;;;;;;;4.15;2.58;;;;;;;;;;5041272;28;20057;-61
2023/05/05 14:15:41;;;;;;;2.58;2.15;;;;;;;;;;5037213;28;20048;-61
2023/05/05 14:18:07;;;;;;;3.65;2.05;;;;;;;;;;5043626;28;20254;-61
2023/05/05 14:20:33;;;;;;;3.33;1.85;;;;;;;;;;5039643;28;20033;-61
2023/05/05 14:23:00;;;;;;;3.65;2.10;;;;;;;;;;5042925;28;20049;-61
2023/05/05 14:25:26;;;;;;;4.60;2.47;;;;;;;;;;5036337;28;20048;-61
2023/05/05 14:27:53;;;;;;;4.90;2.70;;;;;;;;;;5040176;28;20036;-60
2023/05/05 14:30:19;;;;;;;6.13;3.63;;;;;;;;;;5035418;28;20060;-60
2023/05/05 14:32:45;;;;;;;4.03;2.13;;;;;;;;;;5033264;28;20029;-61
2023/05/05 14:35:11;;;;;;;4.82;2.33;;;;;;;;;;5035289;28;20051;-61
2023/05/05 14:37:38;;;;;;;4.38;1.95;;;;;;;;;;5043880;28;20044;-61
2023/05/05 14:40:05;;;;;;;3.75;2.05;;;;;;;;;;5043138;28;20052;-61
2023/05/05 14:42:31;;;;;;;3.35;2.28;;;;;;;;;;5044696;28;20041;-60
2023/05/05 14:44:57;;;;;;;4.65;2.60;;;;;;;;;;5040746;28;20045;-61
2023/05/05 14:47:24;;;;;;;3.38;2.10;;;;;;;;;;5040859;28;20475;-61
2023/05/05 14:49:50;;;;;;;5.07;2.22;;;;;;;;;;5041235;28;20060;-61